createdAt,value
2023-06-04T00:01:29.012Z,11.00
2023-06-04T00:03:55.947Z,10.90
2023-06-04T00:06:22.758Z,10.80
2023-06-04T00:08:49.511Z,10.80
2023-06-04T00:11:16.524Z,10.80
2023-06-04T00:13:43.279Z,10.80
2023-06-04T00:16:10.091Z,10.70
2023-06-04T00:18:36.897Z,10.60
2023-06-04T00:21:03.726Z,10.60
2023-06-04T00:23:30.574Z,10.60
2023-06-04T00:25:57.350Z,10.60
2023-06-04T00:28:24.112Z,10.60
2023-06-04T00:30:50.836Z,10.50
2023-06-04T00:33:17.639Z,10.60
2023-06-04T00:35:44.442Z,10.50
2023-06-04T00:38:11.377Z,10.60
2023-06-04T00:40:38.085Z,10.50
2023-06-04T00:43:04.916Z,10.60
2023-06-04T00:45:33.016Z,10.50
2023-06-04T00:48:00.004Z,10.50
2023-06-04T00:50:26.900Z,10.50
2023-06-04T00:52:55.045Z,10.50
2023-06-04T00:55:22.074Z,10.50
2023-06-04T00:57:48.862Z,10.40
2023-06-04T01:00:15.937Z,10.30
2023-06-04T01:02:44.906Z,10.30
2023-06-04T01:05:36.573Z,10.20
2023-06-04T01:08:03.322Z,10.10
2023-06-04T01:10:30.120Z,10.20
2023-06-04T01:12:56.892Z,10.10
2023-06-04T01:15:23.754Z,10.10
2023-06-04T01:17:54.376Z,10.00
2023-06-04T01:20:29.074Z,10.00
2023-06-04T01:22:57.522Z,9.90
2023-06-04T01:25:42.655Z,9.80
2023-06-04T01:28:13.908Z,9.80
2023-06-04T01:30:47.070Z,9.70
2023-06-04T01:33:19.608Z,9.70
2023-06-04T01:35:46.458Z,9.60
2023-06-04T01:38:13.343Z,9.50
2023-06-04T01:40:40.178Z,9.40
2023-06-04T01:43:07.014Z,9.40
2023-06-04T01:45:34.203Z,9.50
2023-06-04T01:48:03.868Z,9.40
2023-06-04T01:50:31.525Z,9.40
2023-06-04T01:52:58.929Z,9.50
2023-06-04T01:55:26.483Z,9.50
2023-06-04T01:57:53.260Z,9.50
2023-06-04T02:00:20.473Z,9.40
2023-06-04T02:02:49.274Z,9.50
2023-06-04T02:05:16.773Z,9.30
2023-06-04T02:07:45.943Z,9.30
2023-06-04T02:10:13.666Z,9.30
2023-06-04T02:12:41.785Z,9.20
2023-06-04T02:15:11.611Z,9.20
2023-06-04T02:17:41.151Z,9.10
2023-06-04T02:20:11.031Z,9.10
2023-06-04T02:22:38.402Z,9.10
2023-06-04T02:25:06.391Z,9.10
2023-06-04T02:27:33.180Z,9.20
2023-06-04T02:29:59.989Z,9.20
2023-06-04T02:32:26.854Z,9.20
2023-06-04T02:34:53.686Z,9.10
2023-06-04T02:37:20.588Z,9.10
2023-06-04T02:39:47.414Z,9.00
2023-06-04T02:42:14.246Z,8.90
2023-06-04T02:44:41.023Z,8.90
2023-06-04T02:47:08.012Z,8.80
2023-06-04T02:49:34.853Z,8.80
2023-06-04T02:52:01.591Z,8.80
2023-06-04T02:54:28.420Z,8.80
2023-06-04T02:56:55.210Z,8.70
2023-06-04T02:59:22.053Z,8.70
2023-06-04T03:01:49.867Z,8.70
2023-06-04T03:04:17.007Z,8.60
2023-06-04T03:06:47.358Z,8.60
2023-06-04T03:09:14.827Z,8.60
2023-06-04T03:11:41.752Z,8.50
2023-06-04T03:14:08.538Z,8.60
2023-06-04T03:16:35.336Z,8.50
2023-06-04T03:19:02.461Z,8.50
2023-06-04T03:21:30.267Z,8.40
2023-06-04T03:23:57.399Z,8.40
2023-06-04T03:26:24.274Z,8.40
2023-06-04T03:28:51.363Z,8.40
2023-06-04T03:31:18.292Z,8.60
2023-06-04T03:33:45.129Z,8.60
2023-06-04T03:36:11.960Z,8.50
2023-06-04T03:38:38.794Z,8.50
2023-06-04T03:41:05.847Z,8.50
2023-06-04T03:43:32.935Z,8.60
2023-06-04T03:45:59.731Z,8.60
2023-06-04T03:48:26.488Z,8.70
2023-06-04T03:50:53.265Z,8.60
2023-06-04T03:53:20.024Z,8.70
2023-06-04T03:55:46.873Z,8.80
2023-06-04T03:58:15.780Z,8.80
2023-06-04T04:00:42.587Z,8.90
2023-06-04T04:03:11.209Z,9.00
2023-06-04T04:05:38.230Z,9.00
2023-06-04T04:08:05.645Z,9.20
2023-06-04T04:10:32.413Z,9.10
2023-06-04T04:12:59.612Z,9.20
2023-06-04T04:15:26.666Z,9.20
2023-06-04T04:17:53.842Z,9.20
2023-06-04T04:20:21.884Z,9.40
2023-06-04T04:22:51.384Z,9.40
2023-06-04T04:25:18.456Z,9.50
2023-06-04T04:27:45.287Z,9.60
2023-06-04T04:30:14.544Z,9.70
2023-06-04T08:43:35.414Z,20.30
2023-06-04T08:46:06.522Z,20.50
2023-06-04T08:48:33.915Z,20.80
2023-06-04T08:51:02.898Z,21.10
2023-06-04T08:53:32.563Z,20.70
2023-06-04T08:56:00.470Z,21.30
2023-06-04T08:58:29.216Z,21.40
2023-06-04T09:00:56.232Z,21.20
2023-06-04T09:03:23.200Z,21.30
2023-06-04T09:05:51.063Z,20.80
2023-06-04T09:08:20.639Z,20.00
2023-06-04T09:10:52.751Z,20.00
2023-06-04T09:13:22.922Z,19.90
2023-06-04T09:16:29.668Z,20.00
2023-06-04T09:18:57.034Z,20.30
2023-06-04T09:21:23.924Z,20.00
2023-06-04T09:23:50.921Z,20.30
2023-06-04T09:26:17.851Z,19.90
2023-06-04T09:28:47.597Z,20.20
2023-06-04T09:31:18.033Z,20.80
2023-06-04T09:33:52.135Z,20.60
2023-06-04T09:36:19.704Z,21.50
2023-06-04T09:38:47.686Z,21.60
2023-06-04T09:41:16.248Z,22.10
2023-06-04T09:43:44.810Z,21.80
2023-06-04T09:46:12.488Z,20.70
2023-06-04T09:48:40.299Z,19.80
2023-06-04T09:51:16.381Z,20.60
2023-06-04T09:53:43.300Z,21.00
2023-06-04T09:56:12.128Z,21.30
2023-06-04T09:58:44.132Z,21.50
2023-06-04T10:01:12.899Z,21.40
2023-06-04T10:03:43.436Z,21.50
2023-06-04T10:06:11.225Z,21.20
2023-06-04T10:08:42.834Z,21.20
2023-06-04T10:11:12.136Z,21.20
2023-06-04T10:14:03.521Z,21.60
2023-06-04T10:16:34.836Z,21.40
2023-06-04T10:19:02.432Z,21.60
2023-06-04T10:21:35.729Z,22.20
2023-06-04T10:24:02.863Z,22.40
2023-06-04T10:26:31.058Z,22.80
2023-06-04T10:28:59.073Z,23.10
2023-06-04T10:31:26.282Z,23.50
2023-06-04T10:33:57.313Z,23.70
2023-06-04T10:36:25.721Z,23.40
2023-06-04T10:38:56.776Z,23.40
2023-06-04T10:41:24.660Z,22.80
2023-06-04T10:43:53.018Z,21.70
2023-06-04T10:46:21.826Z,21.00
2023-06-04T10:48:53.184Z,20.90
2023-06-04T10:51:33.877Z,21.30
2023-06-04T10:54:02.295Z,21.90
2023-06-04T10:56:33.198Z,22.30
2023-06-04T10:59:01.445Z,22.70
2023-06-04T11:01:29.899Z,22.90
2023-06-04T11:03:57.098Z,22.60
2023-06-04T11:06:27.825Z,22.90
2023-06-04T11:09:07.156Z,22.50
2023-06-04T11:11:34.025Z,22.40
2023-06-04T11:14:11.692Z,22.50
2023-06-04T11:16:38.544Z,22.70
2023-06-04T11:19:05.875Z,21.80
2023-06-04T11:21:35.307Z,20.90
2023-06-04T11:24:02.745Z,20.90
2023-06-04T11:26:33.284Z,21.10
2023-06-04T11:29:00.911Z,20.80
2023-06-04T11:31:28.507Z,21.00
2023-06-04T11:33:55.276Z,21.70
2023-06-04T11:36:27.062Z,22.50
2023-06-04T11:39:06.364Z,22.60
2023-06-04T11:41:34.715Z,22.30
2023-06-04T11:44:08.566Z,22.20
2023-06-04T11:46:42.142Z,22.70
2023-06-04T11:49:08.883Z,22.70
2023-06-04T11:51:35.900Z,22.90
2023-06-04T11:54:03.671Z,22.60
2023-06-04T11:56:30.673Z,22.50
2023-06-04T11:58:57.810Z,22.20
2023-06-04T12:01:29.177Z,22.40
2023-06-04T12:03:56.201Z,22.60
2023-06-04T12:06:23.292Z,22.40
2023-06-04T12:08:54.719Z,22.00
2023-06-04T12:11:32.949Z,22.30
2023-06-04T12:14:01.450Z,22.50
2023-06-04T12:16:28.668Z,22.50
2023-06-04T12:19:07.574Z,22.60
2023-06-04T12:21:34.611Z,21.70
2023-06-04T12:24:09.163Z,21.60
2023-06-04T12:26:38.840Z,21.30
2023-06-04T12:29:16.619Z,21.80
2023-06-04T12:31:46.498Z,21.50
2023-06-04T12:34:18.593Z,21.50
2023-06-04T12:36:45.604Z,21.60
2023-06-04T12:39:12.373Z,22.10
2023-06-04T12:41:39.190Z,22.30
2023-06-04T12:44:05.965Z,22.80
2023-06-04T12:46:32.779Z,21.90
2023-06-04T12:48:59.546Z,21.30
2023-06-04T12:51:26.291Z,21.30
2023-06-04T12:53:53.959Z,21.80
2023-06-04T12:56:20.788Z,22.10
2023-06-04T12:58:47.562Z,22.40
2023-06-04T13:01:14.344Z,22.30
2023-06-04T13:03:42.117Z,22.30
2023-06-04T13:06:09.260Z,21.70
2023-06-04T13:08:37.149Z,21.70
2023-06-04T13:11:04.090Z,22.10
2023-06-04T13:13:31.320Z,22.30
2023-06-04T13:15:58.509Z,21.80
2023-06-04T13:18:25.518Z,21.40
2023-06-04T13:20:52.204Z,21.30
2023-06-04T13:23:19.191Z,21.90
2023-06-04T13:25:45.945Z,22.30
2023-06-04T13:28:12.814Z,22.30
2023-06-04T13:30:40.036Z,22.20
2023-06-04T13:33:07.369Z,21.90
2023-06-04T13:35:34.447Z,22.00
2023-06-04T13:38:01.284Z,21.80
2023-06-04T13:40:28.089Z,21.50
2023-06-04T13:42:54.905Z,21.50
2023-06-04T13:45:22.054Z,21.90
2023-06-04T13:47:49.485Z,22.00
2023-06-04T13:50:16.470Z,22.10
2023-06-04T13:52:43.539Z,22.10
2023-06-04T13:55:10.779Z,21.90
2023-06-04T13:57:37.593Z,21.90
2023-06-04T14:00:05.668Z,21.60
2023-06-04T14:02:32.621Z,21.40
2023-06-04T14:04:59.475Z,21.30
2023-06-04T14:07:26.337Z,21.60
2023-06-04T14:09:55.704Z,21.50
2023-06-04T14:12:24.245Z,21.50
2023-06-04T14:14:51.523Z,21.40
2023-06-04T14:17:18.614Z,21.80
2023-06-04T14:19:45.440Z,22.00
2023-06-04T14:22:15.120Z,22.00
2023-06-04T14:24:43.146Z,21.70
2023-06-04T14:27:10.094Z,21.30
2023-06-04T14:29:41.118Z,21.40
2023-06-04T14:32:08.353Z,21.00
2023-06-04T14:34:35.304Z,21.10
2023-06-04T14:37:02.160Z,21.10
2023-06-04T14:39:28.942Z,21.30
2023-06-04T14:41:55.872Z,21.30
2023-06-04T14:44:22.696Z,21.40
2023-06-04T14:46:51.836Z,21.40
2023-06-04T14:49:18.923Z,21.40
2023-06-04T14:51:46.478Z,21.70
2023-06-04T14:54:13.364Z,21.20
2023-06-04T14:56:40.210Z,20.80
2023-06-04T14:59:10.213Z,20.80
2023-06-04T15:01:37.983Z,21.00
2023-06-04T15:04:05.748Z,21.20
2023-06-04T15:06:32.600Z,21.10
2023-06-04T15:08:59.539Z,21.10
2023-06-04T15:11:26.606Z,21.10
2023-06-04T15:13:56.730Z,20.90
2023-06-04T15:16:24.346Z,21.00
2023-06-04T15:18:51.280Z,20.70
2023-06-04T15:21:18.052Z,20.90
2023-06-04T15:23:49.349Z,20.80
2023-06-04T15:26:18.132Z,20.90
2023-06-04T15:28:48.143Z,21.00
2023-06-04T15:31:14.924Z,21.20
2023-06-04T15:33:41.764Z,21.20
2023-06-04T15:36:08.477Z,21.30
2023-06-04T15:38:35.337Z,21.50
2023-06-04T15:41:02.126Z,21.60
2023-06-04T15:43:28.870Z,21.40
2023-06-04T15:45:55.840Z,21.20
2023-06-04T15:48:22.721Z,20.90
2023-06-04T15:50:49.660Z,20.70
2023-06-04T15:53:16.470Z,20.80
2023-06-04T15:55:43.312Z,20.60
2023-06-04T15:58:10.745Z,20.60
2023-06-04T16:00:37.536Z,20.70
2023-06-04T16:03:04.385Z,21.00
2023-06-04T16:05:31.623Z,21.10
2023-06-04T16:07:58.442Z,20.70
2023-06-04T16:10:25.253Z,20.70
2023-06-04T16:12:52.011Z,20.90
2023-06-04T16:15:18.808Z,21.00
2023-06-04T16:17:48.180Z,20.90
2023-06-04T16:20:18.333Z,20.80
2023-06-04T16:22:45.130Z,20.90
2023-06-04T16:25:11.887Z,20.70
2023-06-04T16:27:38.674Z,20.70
2023-06-04T16:30:06.560Z,20.40
2023-06-04T16:32:33.354Z,20.20
2023-06-04T16:35:02.895Z,20.10
2023-06-04T16:37:30.917Z,19.90
2023-06-04T16:39:57.674Z,19.90
2023-06-04T16:42:25.847Z,19.80
2023-06-04T16:44:52.637Z,19.80
2023-06-04T16:47:19.854Z,19.90
2023-06-04T16:49:46.893Z,19.60
2023-06-04T16:52:13.624Z,19.70
2023-06-04T16:54:41.200Z,19.70
2023-06-04T16:57:07.962Z,19.70
2023-06-04T16:59:34.774Z,19.70
2023-06-04T17:02:01.560Z,19.60
2023-06-04T17:04:28.304Z,19.70
2023-06-04T17:06:57.270Z,19.50
2023-06-04T17:09:24.074Z,19.40
2023-06-04T17:11:50.855Z,19.40
2023-06-04T17:14:17.637Z,19.30
2023-06-04T17:16:44.367Z,19.40
2023-06-04T17:19:11.284Z,19.40
2023-06-04T17:21:39.155Z,19.30
2023-06-04T17:24:06.154Z,19.20
2023-06-04T17:26:33.001Z,19.10
2023-06-04T17:29:00.502Z,19.10
2023-06-04T17:31:27.542Z,19.10
2023-06-04T17:33:54.343Z,18.90
2023-06-04T17:36:21.782Z,18.90
2023-06-04T17:38:49.110Z,18.90
2023-06-04T17:41:16.379Z,18.80
2023-06-04T17:43:43.867Z,18.80
2023-06-04T17:46:11.235Z,18.80
2023-06-04T17:48:38.356Z,18.70
2023-06-04T17:51:05.939Z,18.70
2023-06-04T17:53:33.277Z,18.70
2023-06-04T17:56:00.262Z,18.70
2023-06-04T17:58:27.041Z,18.70
2023-06-04T18:00:53.925Z,18.60
2023-06-04T18:03:20.712Z,18.60
2023-06-04T18:05:47.853Z,18.50
2023-06-04T18:08:14.975Z,18.50
2023-06-04T18:10:42.908Z,18.50
2023-06-04T18:13:09.904Z,18.50
2023-06-04T18:15:36.692Z,18.40
2023-06-04T18:18:04.722Z,18.30
2023-06-04T18:20:31.565Z,18.30
2023-06-04T18:22:58.312Z,18.20
2023-06-04T18:25:26.548Z,18.10
2023-06-04T18:27:53.352Z,18.20
2023-06-04T18:30:20.153Z,18.10
2023-06-04T18:32:48.496Z,18.00
2023-06-04T18:35:16.495Z,18.00
2023-06-04T18:37:44.196Z,18.00
2023-06-04T18:40:13.337Z,18.00
2023-06-04T18:42:40.750Z,18.00
2023-06-04T18:45:10.417Z,18.00
2023-06-04T18:47:38.118Z,17.90
2023-06-04T18:50:05.568Z,17.90
2023-06-04T18:52:34.242Z,17.90
2023-06-04T18:55:01.948Z,17.80
2023-06-04T18:57:28.879Z,17.70
2023-06-04T18:59:55.671Z,17.70
2023-06-04T19:02:22.533Z,17.80
2023-06-04T19:04:49.468Z,17.70
2023-06-04T19:07:16.441Z,17.60
2023-06-04T19:09:43.236Z,17.60
2023-06-04T19:12:10.057Z,17.50
2023-06-04T19:14:38.255Z,17.50
2023-06-04T19:17:05.425Z,17.50
2023-06-04T19:19:32.235Z,17.40
2023-06-04T19:21:59.390Z,17.40
2023-06-04T19:24:26.380Z,17.40
2023-06-04T19:26:53.132Z,17.30
2023-06-04T19:29:20.034Z,17.40
2023-06-04T19:31:47.449Z,17.40
2023-06-04T19:34:14.335Z,17.30
2023-06-04T19:36:41.293Z,17.30
2023-06-04T19:39:08.249Z,17.30
2023-06-04T19:41:35.000Z,17.40
2023-06-04T19:44:01.763Z,17.30
2023-06-04T19:46:28.638Z,17.20
2023-06-04T19:48:55.449Z,17.20
2023-06-04T19:51:22.269Z,17.20
2023-06-04T19:53:49.336Z,17.10
2023-06-04T19:56:16.167Z,17.00
2023-06-04T19:58:42.996Z,17.00
2023-06-04T20:01:11.853Z,17.00
2023-06-04T20:03:41.744Z,17.00
2023-06-04T20:06:10.233Z,17.00
2023-06-04T20:08:37.415Z,16.90
2023-06-04T20:11:04.452Z,16.90
2023-06-04T20:13:31.726Z,16.90
2023-06-04T20:15:58.469Z,16.90
2023-06-04T20:18:27.612Z,17.00
2023-06-04T20:20:54.558Z,17.00
2023-06-04T20:23:21.396Z,16.90
2023-06-04T20:25:48.245Z,16.90
2023-06-04T20:28:16.172Z,16.90
2023-06-04T20:30:42.944Z,16.80
2023-06-04T20:33:09.840Z,16.80
2023-06-04T20:35:36.825Z,16.80
2023-06-04T20:38:04.098Z,16.80
2023-06-04T20:40:30.973Z,16.80
2023-06-04T20:42:58.288Z,16.80
2023-06-04T20:45:25.071Z,16.90
2023-06-04T20:47:52.609Z,16.90
2023-06-04T20:50:19.361Z,17.00
2023-06-04T20:52:46.254Z,17.00
2023-06-04T20:55:13.114Z,16.90
2023-06-04T20:57:39.870Z,16.90
2023-06-04T21:00:08.481Z,16.90
2023-06-04T21:02:35.308Z,17.00
2023-06-04T21:05:02.248Z,17.00
2023-06-04T21:07:29.047Z,17.00
2023-06-04T21:09:55.834Z,17.00
2023-06-04T21:12:22.621Z,17.00
2023-06-04T21:14:51.868Z,17.00
2023-06-04T21:17:18.672Z,17.00
2023-06-04T21:19:45.481Z,17.00
2023-06-04T21:22:12.188Z,16.90
2023-06-04T21:24:38.974Z,16.90
2023-06-04T21:27:06.045Z,16.90
2023-06-04T21:29:32.777Z,16.90
2023-06-04T21:31:59.531Z,16.90
2023-06-04T21:34:26.395Z,16.80
2023-06-04T21:36:53.156Z,16.70
2023-06-04T21:39:19.864Z,16.70
2023-06-04T21:41:46.569Z,16.80
2023-06-04T21:44:13.347Z,16.70
2023-06-04T21:46:40.584Z,16.70
2023-06-04T21:49:07.308Z,16.70
2023-06-04T21:51:34.158Z,16.70
2023-06-04T21:54:00.982Z,16.60
2023-06-04T21:56:27.848Z,16.60
2023-06-04T21:58:54.644Z,16.60
2023-06-04T22:01:21.490Z,16.50
2023-06-04T22:03:48.482Z,16.50
2023-06-04T22:06:15.395Z,16.50
2023-06-04T22:08:42.100Z,16.50
2023-06-04T22:11:09.110Z,16.50
2023-06-04T22:13:36.544Z,16.60
2023-06-04T22:16:03.411Z,16.60
2023-06-04T22:18:37.688Z,16.60
2023-06-04T22:21:07.958Z,16.60
2023-06-04T22:23:34.905Z,16.50
2023-06-04T22:26:01.701Z,16.50
2023-06-04T22:28:28.411Z,16.50
2023-06-04T22:30:55.220Z,16.50
2023-06-04T22:33:21.970Z,16.50
2023-06-04T22:35:51.469Z,16.40
2023-06-04T22:38:18.175Z,16.30
2023-06-04T22:40:44.916Z,16.20
2023-06-04T22:43:11.647Z,15.90
2023-06-04T22:45:38.489Z,15.80
2023-06-04T22:48:05.684Z,15.70
2023-06-04T22:50:32.500Z,15.60
2023-06-04T22:52:59.290Z,15.50
2023-06-04T22:55:26.210Z,15.50
2023-06-04T22:57:53.002Z,15.60
2023-06-04T23:00:20.077Z,15.60
2023-06-04T23:02:46.958Z,15.60
2023-06-04T23:05:13.876Z,15.50
2023-06-04T23:07:40.687Z,15.40
2023-06-04T23:10:08.027Z,15.40
2023-06-04T23:12:34.833Z,15.40
2023-06-04T23:15:01.580Z,15.40
2023-06-04T23:17:28.376Z,15.50
2023-06-04T23:19:56.342Z,15.50
2023-06-04T23:22:23.258Z,15.60
2023-06-04T23:24:50.001Z,15.50
2023-06-04T23:27:16.759Z,15.40
2023-06-04T23:29:45.393Z,15.40
2023-06-04T23:32:12.364Z,15.20
2023-06-04T23:34:39.242Z,15.10
2023-06-04T23:37:06.007Z,15.10
2023-06-04T23:39:32.752Z,15.10
2023-06-04T23:41:59.480Z,15.10
2023-06-04T23:44:26.240Z,15.10
2023-06-04T23:46:52.947Z,15.10
2023-06-04T23:49:19.685Z,15.20
2023-06-04T23:51:46.503Z,15.00
2023-06-04T23:54:13.287Z,15.00
2023-06-04T23:56:42.029Z,14.90
2023-06-04T23:59:08.981Z,14.80
